Time;durP1;ratioP1;P1;durP2;ratioP2;P2;SDS_P1;SDS_P2;PMS_P1;PMS_P2;Temp;Humidity;BMP_temperature;BMP_pressure;BME280_temperature;BME280_humidity;BME280_pressure;Samples;Min_cycle;Max_cycle;Signal;HPM_P1;HPM_P2
2022/02/26 00:01:58;;;;;;;41.90;6.43;;;3.80;99.90;;;;;;5049421;28;20369;-54
2022/02/26 00:04:24;;;;;;;30.80;5.07;;;3.80;99.90;;;;;;5030637;28;20050;-61
2022/02/26 00:06:50;;;;;;;35.88;5.32;;;3.80;99.90;;;;;;5068181;28;20498;-52
2022/02/26 00:09:16;;;;;;;31.98;4.70;;;3.80;99.90;;;;;;5036629;28;20041;-52
2022/02/26 00:11:41;;;;;;;48.35;6.05;;;3.70;99.90;;;;;;5047497;28;20049;-64
2022/02/26 00:14:07;;;;;;;33.95;4.80;;;3.70;99.90;;;;;;5067309;28;20036;-58
2022/02/26 00:16:33;;;;;;;32.97;4.70;;;3.60;99.90;;;;;;5048207;28;20072;-68
2022/02/26 00:19:00;;;;;;;42.05;6.18;;;3.50;99.90;;;;;;5032643;28;20406;-59
2022/02/26 00:21:25;;;;;;;28.83;4.57;;;3.50;99.90;;;;;;5066593;28;20123;-56
2022/02/26 00:23:51;;;;;;;26.67;4.47;;;3.40;99.90;;;;;;5030093;28;20131;-52
2022/02/26 00:26:21;;;;;;;49.75;5.95;;;3.40;99.90;;;;;;5046875;28;20052;-63
2022/02/26 00:28:47;;;;;;;29.15;4.10;;;3.40;99.90;;;;;;5051837;28;20136;-55
2022/02/26 00:31:13;;;;;;;26.55;4.60;;;3.40;99.90;;;;;;5064219;28;20071;-56
2022/02/26 00:33:39;;;;;;;34.42;3.65;;;3.40;99.90;;;;;;5048064;28;20041;-57
2022/02/26 00:36:05;;;;;;;30.23;4.30;;;3.30;99.90;;;;;;5066864;28;20032;-56
2022/02/26 00:38:34;;;;;;;39.40;4.85;;;3.30;99.90;;;;;;5064469;28;20047;-59
2022/02/26 00:40:59;;;;;;;22.50;3.33;;;3.30;99.90;;;;;;5048438;28;20041;-52
2022/02/26 00:43:25;;;;;;;31.95;4.80;;;3.30;99.90;;;;;;5049822;28;20406;-66
2022/02/26 00:45:51;;;;;;;39.63;4.78;;;3.30;99.90;;;;;;5032503;28;20126;-57
2022/02/26 00:48:17;;;;;;;36.85;4.63;;;3.30;99.90;;;;;;5066525;28;20104;-52
2022/02/26 00:50:42;;;;;;;29.77;4.47;;;3.30;99.90;;;;;;5072811;28;20041;-54
2022/02/26 00:53:08;;;;;;;34.17;4.53;;;3.30;99.90;;;;;;5048595;28;20048;-59
2022/02/26 00:55:34;;;;;;;32.28;4.57;;;3.30;99.90;;;;;;5049872;28;20044;-50
2022/02/26 00:58:03;;;;;;;30.45;4.20;;;3.30;99.90;;;;;;5049777;28;20080;-54
2022/02/26 01:00:29;;;;;;;35.00;4.88;;;3.20;99.90;;;;;;5072037;28;20048;-65
2022/02/26 01:02:55;;;;;;;33.35;4.88;;;3.20;99.90;;;;;;5047121;28;20062;-62
2022/02/26 01:05:20;;;;;;;30.17;4.57;;;3.20;99.90;;;;;;5067057;28;20085;-57
2022/02/26 01:07:47;;;;;;;35.00;3.95;;;3.00;99.90;;;;;;5050185;28;20127;-66
2022/02/26 01:10:13;;;;;;;30.13;4.38;;;3.00;99.90;;;;;;5032214;28;20067;-58
2022/02/26 01:12:39;;;;;;;34.75;4.50;;;2.90;99.90;;;;;;5033453;28;20100;-57
2022/02/26 01:15:05;;;;;;;29.10;4.28;;;2.80;99.90;;;;;;5047635;28;20048;-54
2022/02/26 01:17:31;;;;;;;43.35;5.07;;;2.80;99.90;;;;;;5052062;28;20418;-52
2022/02/26 01:19:57;;;;;;;25.38;3.42;;;2.80;99.90;;;;;;5067848;28;20040;-56
2022/02/26 01:22:23;;;;;;;28.67;3.38;;;2.80;99.90;;;;;;5048313;28;20044;-62
2022/02/26 01:24:49;;;;;;;31.85;3.95;;;2.80;99.90;;;;;;5067189;28;20581;-59
2022/02/26 01:27:15;;;;;;;35.88;4.13;;;2.70;99.90;;;;;;5048566;28;20052;-51
2022/02/26 01:29:41;;;;;;;28.23;4.13;;;2.70;99.90;;;;;;5053593;28;20502;-57
2022/02/26 01:32:07;;;;;;;39.92;4.13;;;2.60;99.90;;;;;;5047759;28;20146;-64
2022/02/26 01:34:34;;;;;;;40.63;4.40;;;2.60;99.90;;;;;;5031644;28;20044;-56
2022/02/26 01:37:01;;;;;;;45.10;6.55;;;2.60;99.90;;;;;;5048834;28;20032;-54
2022/02/26 01:39:26;;;;;;;33.13;4.05;;;2.50;99.90;;;;;;5015823;28;20092;-57
2022/02/26 01:41:54;;;;;;;32.97;4.65;;;2.40;99.90;;;;;;5048943;28;20118;-53
2022/02/26 01:44:20;;;;;;;46.97;5.80;;;2.40;99.90;;;;;;5047115;28;20506;-60
2022/02/26 01:46:45;;;;;;;41.50;5.80;;;2.50;99.90;;;;;;5049281;28;20464;-57
2022/02/26 01:49:12;;;;;;;38.03;4.45;;;2.50;99.90;;;;;;5072568;28;20442;-58
2022/02/26 01:51:41;;;;;;;27.92;4.00;;;2.50;99.90;;;;;;5054958;28;20052;-65
2022/02/26 01:54:06;;;;;;;27.30;4.50;;;2.50;99.90;;;;;;5030593;28;20040;-60
2022/02/26 01:56:33;;;;;;;34.95;4.45;;;2.50;99.90;;;;;;5065269;28;20050;-58
2022/02/26 01:58:59;;;;;;;30.70;4.00;;;2.50;99.90;;;;;;5047711;28;20040;-57
2022/02/26 02:01:25;;;;;;;31.25;5.13;;;2.50;99.90;;;;;;5065560;28;20049;-61
2022/02/26 02:03:51;;;;;;;43.38;4.32;;;2.40;99.90;;;;;;5048764;28;20139;-51
2022/02/26 02:06:17;;;;;;;32.33;4.18;;;2.50;99.90;;;;;;5047431;28;20048;-57
2022/02/26 02:08:43;;;;;;;24.92;4.28;;;2.50;99.90;;;;;;5032156;28;20494;-53
2022/02/26 02:11:09;;;;;;;26.10;4.05;;;2.50;99.90;;;;;;5047855;28;20064;-54
2022/02/26 02:13:35;;;;;;;29.42;5.18;;;2.40;99.90;;;;;;5065220;28;20447;-53
2022/02/26 02:16:01;;;;;;;33.38;4.28;;;2.40;99.90;;;;;;5031230;28;20095;-51
2022/02/26 02:18:27;;;;;;;35.45;4.90;;;2.40;99.90;;;;;;5047647;28;20064;-55
2022/02/26 02:20:53;;;;;;;30.77;3.70;;;2.40;99.90;;;;;;5048231;28;20078;-63
2022/02/26 02:23:19;;;;;;;29.75;4.43;;;2.40;99.90;;;;;;5046621;28;20502;-55
2022/02/26 02:25:45;;;;;;;29.77;3.92;;;2.40;99.90;;;;;;5065773;28;20041;-56
2022/02/26 02:28:11;;;;;;;41.85;5.32;;;2.40;99.90;;;;;;5047322;28;20044;-58
2022/02/26 02:30:38;;;;;;;38.38;5.35;;;2.40;99.90;;;;;;5032499;28;20052;-64
2022/02/26 02:33:05;;;;;;;24.38;3.90;;;2.30;99.90;;;;;;5029744;28;20040;-52
2022/02/26 02:35:33;;;;;;;28.75;4.32;;;2.40;99.90;;;;;;5030873;28;20052;-58
2022/02/26 02:38:13;;;;;;;31.17;4.78;;;2.30;99.90;;;;;;5047960;28;20145;-59
2022/02/26 02:40:47;;;;;;;27.23;4.07;;;2.30;99.90;;;;;;5050951;28;20104;-52
2022/02/26 02:43:14;;;;;;;32.85;5.47;;;2.30;99.90;;;;;;5068772;28;20539;-52
2022/02/26 02:45:41;;;;;;;34.13;4.43;;;2.30;99.90;;;;;;5046759;28;20040;-50
2022/02/26 02:48:07;;;;;;;17.98;3.05;;;2.20;99.90;;;;;;5065289;28;20350;-57
2022/02/26 02:50:33;;;;;;;33.38;3.63;;;2.30;99.90;;;;;;5046659;28;20525;-51
2022/02/26 02:52:59;;;;;;;21.63;3.20;;;2.20;99.90;;;;;;5047784;28;20044;-67
2022/02/26 02:55:25;;;;;;;19.00;3.67;;;2.20;99.90;;;;;;5047272;28;20044;-52
2022/02/26 02:57:52;;;;;;;22.20;3.67;;;2.30;99.90;;;;;;5046546;28;20041;-55
2022/02/26 03:00:22;;;;;;;21.08;3.10;;;2.20;99.90;;;;;;5047944;28;20093;-67
2022/02/26 03:02:48;;;;;;;38.53;4.68;;;2.20;99.90;;;;;;5047272;28;20426;-51
2022/02/26 03:05:18;;;;;;;25.13;3.72;;;2.20;99.90;;;;;;5047158;28;20538;-63
2022/02/26 03:07:44;;;;;;;;;;;2.10;99.90;;;;;;5031510;28;20072;-53
2022/02/26 03:10:10;;;;;;;24.98;3.95;;;2.10;99.90;;;;;;5066364;28;20028;-65
2022/02/26 03:12:37;;;;;;;20.05;2.83;;;2.00;99.90;;;;;;5046421;28;20399;-55
2022/02/26 03:15:03;;;;;;;28.40;3.53;;;2.00;99.90;;;;;;5046287;28;20056;-52
2022/02/26 03:17:29;;;;;;;32.17;3.47;;;2.00;99.90;;;;;;5011891;28;20064;-55
2022/02/26 03:19:55;;;;;;;28.00;3.38;;;1.90;99.90;;;;;;5065355;28;20048;-54
2022/02/26 03:22:22;;;;;;;21.27;3.40;;;1.80;99.90;;;;;;5048263;28;20581;-67
2022/02/26 03:24:48;;;;;;;33.17;3.95;;;1.80;99.90;;;;;;5048865;28;20506;-56
2022/02/26 03:27:14;;;;;;;29.40;3.60;;;1.70;99.90;;;;;;5031442;28;20103;-65
2022/02/26 03:29:40;;;;;;;30.83;4.45;;;1.60;99.90;;;;;;5046535;28;20545;-52
2022/02/26 03:32:07;;;;;;;36.40;4.68;;;1.60;99.90;;;;;;5030966;28;20131;-64
2022/02/26 03:34:34;;;;;;;25.33;3.60;;;1.50;99.90;;;;;;5046919;28;20162;-57
2022/02/26 03:37:00;;;;;;;26.40;3.65;;;1.40;99.90;;;;;;5029088;28;20044;-52
2022/02/26 03:39:31;;;;;;;26.83;4.15;;;1.30;99.90;;;;;;5047050;28;20063;-57
2022/02/26 03:41:59;;;;;;;20.88;3.13;;;1.20;99.90;;;;;;5046921;28;20052;-54
2022/02/26 03:44:25;;;;;;;25.67;3.88;;;1.20;99.90;;;;;;5065032;28;20037;-59
2022/02/26 03:46:51;;;;;;;24.48;3.17;;;1.10;99.90;;;;;;5045708;28;20052;-58
2022/02/26 03:49:16;;;;;;;21.17;3.08;;;1.10;99.90;;;;;;5047747;28;20422;-52
2022/02/26 03:51:42;;;;;;;25.60;3.17;;;1.20;99.90;;;;;;5046753;28;20398;-60
2022/02/26 03:54:08;;;;;;;15.60;2.35;;;1.20;99.90;;;;;;5046938;28;20059;-58
2022/02/26 03:56:34;;;;;;;23.65;2.95;;;1.10;99.90;;;;;;5047431;28;20044;-58
2022/02/26 03:59:00;;;;;;;22.55;2.85;;;0.90;99.90;;;;;;5046674;28;20044;-62
2022/02/26 04:01:26;;;;;;;31.05;2.88;;;0.80;99.90;;;;;;5050308;28;20053;-63
2022/02/26 04:03:52;;;;;;;27.15;3.25;;;0.60;99.90;;;;;;5049856;28;20044;-51
2022/02/26 04:06:18;;;;;;;30.30;3.72;;;0.60;99.90;;;;;;5068591;28;20050;-65
2022/02/26 04:08:43;;;;;;;25.27;2.90;;;0.50;99.90;;;;;;5050444;28;20055;-50
2022/02/26 04:11:09;;;;;;;26.27;3.33;;;0.40;99.90;;;;;;5033766;28;20525;-53
2022/02/26 04:13:38;;;;;;;23.52;3.25;;;0.40;99.90;;;;;;5050513;28;20063;-58
2022/02/26 04:16:04;;;;;;;21.00;2.85;;;0.30;99.90;;;;;;5049550;28;20436;-56
2022/02/26 04:18:30;;;;;;;26.55;2.80;;;0.30;99.90;;;;;;5069144;28;20053;-59
2022/02/26 04:20:56;;;;;;;28.08;3.60;;;0.40;99.90;;;;;;5068094;28;20086;-50
2022/02/26 04:23:22;;;;;;;32.53;3.67;;;0.50;99.90;;;;;;5050767;28;20041;-65
2022/02/26 04:25:48;;;;;;;34.03;3.75;;;0.60;99.90;;;;;;5067778;28;20368;-58
2022/02/26 04:28:13;;;;;;;18.77;3.85;;;0.70;99.90;;;;;;5049585;28;20048;-57
2022/02/26 04:30:40;;;;;;;28.48;3.22;;;0.90;99.90;;;;;;5049836;28;20363;-57
2022/02/26 04:33:06;;;;;;;32.88;4.15;;;1.00;99.90;;;;;;5053092;28;20156;-56
2022/02/26 04:35:32;;;;;;;34.95;3.50;;;1.00;99.90;;;;;;5078190;28;20040;-53
2022/02/26 04:37:58;;;;;;;22.83;3.58;;;0.90;99.90;;;;;;5049572;28;20127;-56
2022/02/26 04:40:24;;;;;;;32.13;4.07;;;0.90;99.90;;;;;;5068964;28;20145;-56
2022/02/26 04:42:50;;;;;;;35.60;4.70;;;1.00;99.90;;;;;;5048198;28;20084;-64
2022/02/26 04:45:17;;;;;;;38.42;5.32;;;1.00;99.90;;;;;;5050374;28;20086;-48
2022/02/26 04:47:43;;;;;;;16.77;3.03;;;1.00;99.90;;;;;;5049566;28;20045;-55
2022/02/26 04:50:11;;;;;;;43.40;4.53;;;1.00;99.90;;;;;;5050412;28;20519;-59
2022/02/26 04:52:37;;;;;;;31.48;3.40;;;1.00;99.90;;;;;;5066049;28;20039;-58
2022/02/26 04:55:04;;;;;;;27.10;3.15;;;1.10;99.90;;;;;;5048540;28;20076;-58
2022/02/26 04:57:30;;;;;;;29.83;4.10;;;1.20;99.90;;;;;;5040837;28;20081;-67
2022/02/26 04:59:56;;;;;;;35.22;3.67;;;1.20;99.90;;;;;;5048331;28;20533;-51
2022/02/26 05:02:21;;;;;;;27.20;4.20;;;1.10;99.90;;;;;;5068162;28;20033;-58
2022/02/26 05:04:48;;;;;;;24.05;3.80;;;1.20;99.90;;;;;;5048724;28;20116;-57
2022/02/26 05:07:15;;;;;;;29.50;3.90;;;1.30;99.90;;;;;;5069741;28;20056;-58
2022/02/26 05:09:44;;;;;;;24.50;3.60;;;1.20;99.90;;;;;;5067292;28;20036;-50
2022/02/26 05:12:10;;;;;;;40.08;4.00;;;1.20;99.90;;;;;;5048750;28;20048;-64
2022/02/26 05:14:36;;;;;;;38.80;4.50;;;1.30;99.90;;;;;;5073900;28;20672;-56
2022/02/26 05:17:02;;;;;;;37.35;4.43;;;1.30;99.90;;;;;;5048404;28;20640;-63
2022/02/26 05:19:28;;;;;;;47.17;4.35;;;1.30;99.90;;;;;;5050094;28;20067;-58
2022/02/26 05:21:54;;;;;;;25.17;3.80;;;1.20;99.90;;;;;;5066594;28;20537;-51
2022/02/26 05:24:20;;;;;;;30.27;4.03;;;1.20;99.90;;;;;;5032134;28;20048;-54
2022/02/26 05:26:46;;;;;;;24.02;3.97;;;1.20;99.90;;;;;;5048648;28;20583;-52
2022/02/26 05:29:11;;;;;;;30.80;4.03;;;1.20;99.90;;;;;;5032178;28;20041;-53
2022/02/26 05:31:37;;;;;;;29.92;3.72;;;1.30;99.90;;;;;;5032047;28;20075;-52
2022/02/26 05:34:03;;;;;;;19.70;2.78;;;1.30;99.90;;;;;;5047751;28;20044;-63
2022/02/26 05:36:29;;;;;;;24.02;3.33;;;1.20;99.90;;;;;;5046741;28;20532;-59
2022/02/26 05:38:55;;;;;;;43.38;4.68;;;1.10;99.90;;;;;;5047106;28;20189;-55
2022/02/26 05:41:22;;;;;;;29.95;3.70;;;1.10;99.90;;;;;;5042782;28;20132;-66
2022/02/26 05:43:48;;;;;;;29.42;3.75;;;1.10;99.90;;;;;;5048330;28;20388;-49
2022/02/26 05:46:14;;;;;;;37.50;3.85;;;1.10;99.90;;;;;;5030824;28;20051;-67
2022/02/26 05:48:40;;;;;;;33.53;3.88;;;1.10;99.90;;;;;;5048424;28;20667;-60
2022/02/26 05:51:05;;;;;;;42.47;4.00;;;1.10;99.90;;;;;;5046149;28;20674;-53
2022/02/26 05:53:31;;;;;;;31.02;4.32;;;1.10;99.90;;;;;;5032571;28;20033;-55
2022/02/26 05:55:57;;;;;;;34.67;4.50;;;1.10;99.90;;;;;;5047215;28;20052;-52
2022/02/26 05:58:23;;;;;;;57.47;7.47;;;1.20;99.90;;;;;;5031859;28;20105;-54
2022/02/26 06:00:49;;;;;;;30.67;4.90;;;1.20;99.90;;;;;;5047515;28;20405;-53
2022/02/26 06:03:16;;;;;;;21.90;3.80;;;1.30;99.90;;;;;;5049211;28;20116;-61
2022/02/26 06:05:43;;;;;;;26.00;4.72;;;1.30;99.90;;;;;;5048342;28;20118;-54
2022/02/26 06:08:09;;;;;;;27.80;3.10;;;1.20;99.90;;;;;;5048207;28;20055;-55
2022/02/26 06:10:34;;;;;;;37.80;3.45;;;1.20;99.90;;;;;;5031838;28;20056;-55
2022/02/26 06:13:00;;;;;;;34.13;3.85;;;1.20;99.90;;;;;;5046987;28;20044;-57
2022/02/26 06:15:26;;;;;;;28.85;3.05;;;1.10;99.90;;;;;;5048689;28;20418;-58
2022/02/26 06:17:52;;;;;;;35.70;3.70;;;1.10;99.90;;;;;;5047565;28;20048;-57
2022/02/26 06:20:18;;;;;;;36.40;3.33;;;1.00;99.90;;;;;;5048228;28;20539;-58
2022/02/26 06:22:43;;;;;;;37.80;3.33;;;1.10;99.90;;;;;;5046755;28;20052;-53
2022/02/26 06:25:09;;;;;;;26.95;3.38;;;1.10;99.90;;;;;;5047527;28;20051;-55
2022/02/26 06:27:40;;;;;;;27.38;3.22;;;1.00;99.90;;;;;;5048722;28;20049;-54
2022/02/26 06:30:07;;;;;;;23.73;3.35;;;0.90;99.90;;;;;;5047940;28;20650;-56
2022/02/26 06:32:33;;;;;;;20.40;3.03;;;0.90;99.90;;;;;;5048303;28;20724;-61
2022/02/26 06:34:59;;;;;;;31.85;3.15;;;0.80;99.90;;;;;;5046675;28;20056;-55
2022/02/26 06:37:25;;;;;;;24.75;4.10;;;0.80;99.90;;;;;;5031932;28;20041;-52
2022/02/26 06:39:51;;;;;;;25.10;2.83;;;0.80;99.90;;;;;;5047517;28;20036;-59
2022/02/26 06:42:16;;;;;;;26.02;3.75;;;0.80;99.90;;;;;;5065795;28;20045;-56
2022/02/26 06:44:42;;;;;;;18.63;2.95;;;0.80;99.90;;;;;;5047656;28;20052;-57
2022/02/26 06:47:08;;;;;;;30.80;3.97;;;0.70;99.90;;;;;;5014138;28;20044;-65
2022/02/26 06:49:34;;;;;;;26.00;3.80;;;0.60;99.90;;;;;;5048379;28;20106;-64
2022/02/26 06:52:00;;;;;;;25.50;3.85;;;0.50;99.90;;;;;;5045393;28;20056;-62
2022/02/26 06:54:26;;;;;;;26.10;4.68;;;0.40;99.90;;;;;;5031821;28;20050;-60
2022/02/26 06:56:52;;;;;;;20.88;3.42;;;0.40;99.90;;;;;;5046691;28;20076;-59
2022/02/26 06:59:19;;;;;;;38.50;4.85;;;0.40;99.90;;;;;;5048173;28;20048;-61
2022/02/26 07:01:45;;;;;;;22.23;2.88;;;0.40;99.90;;;;;;5045460;28;20044;-59
2022/02/26 07:04:14;;;;;;;27.45;2.97;;;0.50;99.90;;;;;;5064717;28;20082;-62
2022/02/26 07:06:44;;;;;;;20.15;2.95;;;0.50;99.90;;;;;;5065518;28;20079;-54
2022/02/26 07:09:18;;;;;;;33.97;3.50;;;0.40;99.90;;;;;;5047181;28;20595;-56
2022/02/26 07:11:46;;;;;;;18.30;2.58;;;0.50;99.90;;;;;;5046861;28;20037;-60
2022/02/26 07:14:13;;;;;;;20.50;2.97;;;0.60;99.90;;;;;;5047283;28;20056;-62
2022/02/26 07:16:39;;;;;;;25.63;3.35;;;0.60;99.90;;;;;;5047879;28;20094;-61
2022/02/26 07:19:06;;;;;;;35.33;5.07;;;0.70;99.90;;;;;;5046705;28;20056;-64
2022/02/26 07:21:33;;;;;;;24.00;3.22;;;0.80;99.90;;;;;;5064805;28;20041;-61
2022/02/26 07:23:59;;;;;;;26.95;3.42;;;0.90;99.90;;;;;;5044034;28;20049;-57
2022/02/26 07:26:29;;;;;;;35.90;4.78;;;1.10;99.90;;;;;;5044120;28;20047;-58
2022/02/26 07:28:56;;;;;;;24.55;2.72;;;1.10;99.90;;;;;;5047410;28;20048;-58
2022/02/26 07:31:22;;;;;;;32.75;3.40;;;1.10;99.90;;;;;;5045587;28;20502;-65
2022/02/26 07:33:49;;;;;;;30.00;3.72;;;1.20;99.90;;;;;;5048256;28;20106;-62
2022/02/26 07:36:14;;;;;;;30.20;3.08;;;1.30;99.90;;;;;;5034094;28;20513;-62
2022/02/26 07:38:41;;;;;;;15.30;2.15;;;1.40;99.90;;;;;;5071943;28;20094;-63
2022/02/26 07:41:07;;;;;;;27.83;4.32;;;1.50;99.90;;;;;;5074324;28;20140;-61
2022/02/26 07:43:34;;;;;;;31.05;3.33;;;1.60;99.90;;;;;;5069323;28;20045;-55
2022/02/26 07:46:00;;;;;;;19.35;3.05;;;1.70;99.90;;;;;;5062228;28;20514;-56
2022/02/26 07:48:26;;;;;;;19.00;3.58;;;1.70;99.90;;;;;;5051142;28;20082;-53
2022/02/26 07:50:52;;;;;;;33.90;4.10;;;1.80;99.90;;;;;;5063199;28;20505;-65
2022/02/26 07:53:17;;;;;;;37.88;4.03;;;1.90;99.90;;;;;;5067914;28;20076;-63
2022/02/26 07:55:43;;;;;;;22.17;3.42;;;1.90;99.90;;;;;;5069108;28;20036;-59
2022/02/26 07:58:10;;;;;;;22.27;2.97;;;2.00;99.90;;;;;;5034100;28;20052;-63
2022/02/26 08:00:36;;;;;;;32.03;3.95;;;2.10;99.90;;;;;;5064948;28;20086;-57
2022/02/26 08:03:02;;;;;;;29.23;3.67;;;2.20;99.90;;;;;;5067916;28;20091;-61
2022/02/26 08:05:28;;;;;;;24.65;3.08;;;2.30;99.90;;;;;;5049229;28;20064;-60
2022/02/26 08:07:54;;;;;;;27.52;3.17;;;2.40;99.90;;;;;;5075523;28;20051;-65
2022/02/26 08:10:22;;;;;;;34.47;3.17;;;2.40;99.90;;;;;;5064181;28;20506;-58
2022/02/26 08:12:52;;;;;;;29.05;3.38;;;2.50;99.90;;;;;;5050397;28;20134;-60
2022/02/26 08:15:22;;;;;;;26.25;2.88;;;2.60;99.90;;;;;;5050134;28;20068;-62
2022/02/26 08:17:48;;;;;;;21.95;2.53;;;2.70;99.90;;;;;;5050131;28;20131;-61
2022/02/26 08:20:16;;;;;;;18.75;2.58;;;2.80;99.90;;;;;;5068691;28;20120;-57
2022/02/26 08:22:42;;;;;;;33.83;3.90;;;2.90;99.90;;;;;;5016328;28;20146;-60
2022/02/26 08:25:09;;;;;;;25.67;3.45;;;3.00;99.90;;;;;;5050930;28;20044;-59
2022/02/26 08:27:36;;;;;;;21.25;2.65;;;3.10;99.90;;;;;;5032892;28;20044;-56
2022/02/26 08:30:06;;;;;;;29.67;4.03;;;3.20;99.90;;;;;;5017851;28;20052;-63
2022/02/26 08:32:32;;;;;;;24.70;2.65;;;3.30;99.90;;;;;;5068227;28;20116;-54
2022/02/26 08:34:58;;;;;;;29.38;3.20;;;3.30;99.90;;;;;;5068206;28;20041;-60
2022/02/26 08:37:24;;;;;;;24.90;2.78;;;3.40;99.90;;;;;;5033783;28;20379;-56
2022/02/26 08:39:49;;;;;;;23.95;3.00;;;3.50;99.90;;;;;;5049368;28;20052;-66
2022/02/26 08:42:15;;;;;;;18.77;2.67;;;3.60;99.90;;;;;;5034039;28;20041;-54
2022/02/26 08:44:41;;;;;;;28.15;3.92;;;3.70;99.90;;;;;;5066715;28;20063;-66
2022/02/26 08:47:08;;;;;;;34.10;3.78;;;3.70;99.90;;;;;;5066778;28;20055;-56
2022/02/26 08:49:34;;;;;;;29.70;4.03;;;3.90;99.90;;;;;;5043957;28;20051;-55
2022/02/26 08:52:02;;;;;;;25.45;3.28;;;4.00;99.90;;;;;;5067033;28;20045;-64
2022/02/26 08:54:27;;;;;;;27.60;3.30;;;4.10;99.90;;;;;;5064039;28;20102;-53
2022/02/26 08:56:53;;;;;;;17.50;3.15;;;4.20;99.90;;;;;;5048524;28;20048;-60
2022/02/26 08:59:19;;;;;;;36.92;4.10;;;4.30;99.90;;;;;;5047505;28;20394;-57
2022/02/26 09:01:45;;;;;;;23.02;3.67;;;4.40;99.90;;;;;;5029691;28;20063;-58
2022/02/26 09:04:11;;;;;;;24.75;3.53;;;4.50;99.90;;;;;;5015109;28;20055;-59
2022/02/26 09:06:38;;;;;;;20.73;3.85;;;4.70;99.90;;;;;;5046526;28;20376;-56
2022/02/26 09:09:08;;;;;;;27.52;3.58;;;4.80;99.90;;;;;;5048316;28;20037;-56
2022/02/26 09:11:35;;;;;;;40.58;4.90;;;4.90;99.90;;;;;;5049042;28;20123;-64
2022/02/26 09:14:02;;;;;;;25.83;4.05;;;5.00;99.90;;;;;;5031688;28;20068;-54
2022/02/26 09:16:28;;;;;;;25.75;3.78;;;5.10;99.90;;;;;;5067135;28;20053;-68
2022/02/26 09:18:54;;;;;;;30.10;4.03;;;5.20;99.90;;;;;;5047975;28;20485;-63
2022/02/26 09:21:20;;;;;;;20.63;3.55;;;5.20;99.90;;;;;;5044904;28;20071;-58
2022/02/26 09:23:46;;;;;;;32.33;3.95;;;5.40;99.90;;;;;;5046136;28;20494;-63
2022/02/26 09:26:12;;;;;;;23.35;3.22;;;5.40;99.90;;;;;;5064371;28;20196;-61
2022/02/26 09:28:41;;;;;;;39.05;4.00;;;5.50;99.90;;;;;;5046820;28;20048;-58
2022/02/26 09:31:09;;;;;;;22.73;2.83;;;5.50;99.90;;;;;;5064117;28;20064;-53
2022/02/26 09:33:35;;;;;;;23.98;3.47;;;5.60;99.90;;;;;;5066560;28;20102;-59
2022/02/26 09:36:02;;;;;;;31.38;3.83;;;5.70;99.90;;;;;;5047888;28;20032;-52
2022/02/26 09:38:28;;;;;;;32.55;3.75;;;5.80;99.90;;;;;;5031186;28;20403;-50
2022/02/26 09:40:59;;;;;;;19.27;3.80;;;5.90;99.90;;;;;;5062685;28;20047;-67
2022/02/26 09:43:26;;;;;;;27.55;3.63;;;5.90;99.90;;;;;;5065590;28;20044;-54
2022/02/26 09:45:53;;;;;;;33.63;3.30;;;6.00;99.90;;;;;;5047717;28;20286;-57
2022/02/26 09:48:19;;;;;;;23.88;3.50;;;6.00;99.90;;;;;;5064851;28;20124;-60
2022/02/26 09:50:45;;;;;;;31.25;4.47;;;6.10;99.90;;;;;;5045703;28;20132;-49
2022/02/26 09:53:12;;;;;;;28.73;3.15;;;6.10;99.90;;;;;;5047093;28;20048;-54
2022/02/26 09:55:38;;;;;;;30.02;2.92;;;6.20;99.90;;;;;;5045586;28;20056;-61
2022/02/26 09:58:05;;;;;;;21.67;3.58;;;6.30;99.90;;;;;;5045938;28;20483;-62
2022/02/26 10:00:31;;;;;;;24.95;3.08;;;6.30;99.90;;;;;;5064992;28;20029;-52
2022/02/26 10:02:57;;;;;;;28.35;3.22;;;6.40;99.90;;;;;;5046980;28;20044;-68
2022/02/26 10:05:23;;;;;;;24.98;3.72;;;6.50;99.90;;;;;;5065778;28;20036;-52
2022/02/26 10:07:52;;;;;;;27.50;3.65;;;6.60;99.90;;;;;;5031055;28;20055;-46
2022/02/26 10:10:21;;;;;;;36.30;3.70;;;6.70;99.90;;;;;;5047372;28;20234;-47
2022/02/26 10:12:52;;;;;;;28.27;3.72;;;6.70;99.90;;;;;;5066150;28;20045;-51
2022/02/26 10:15:36;;;;;;;33.67;3.47;;;6.80;99.90;;;;;;5046511;28;20534;-60
2022/02/26 10:18:15;;;;;;;20.88;3.60;;;6.80;99.90;;;;;;5044373;28;20088;-67
2022/02/26 10:20:47;;;;;;;50.23;10.73;;;6.80;99.90;;;;;;5045098;28;20037;-58
2022/02/26 10:23:15;;;;;;;35.63;5.68;;;6.80;99.90;;;;;;5042448;28;20128;-55
2022/02/26 10:25:41;;;;;;;32.28;6.05;;;6.90;99.90;;;;;;5047093;28;20140;-59
2022/02/26 10:28:11;;;;;;;21.80;4.72;;;7.00;99.90;;;;;;5029952;28;20462;-67
2022/02/26 10:30:45;;;;;;;24.67;4.07;;;7.10;99.90;;;;;;5048107;28;20044;-57
2022/02/26 10:33:23;;;;;;;21.90;3.38;;;7.10;99.90;;;;;;5063769;28;20055;-55
2022/02/26 10:35:54;;;;;;;30.00;3.30;;;7.10;99.90;;;;;;5061978;28;20229;-53
2022/02/26 10:38:24;;;;;;;22.35;3.20;;;7.10;99.90;;;;;;5043956;28;20127;-56
2022/02/26 10:41:08;;;;;;;19.42;3.22;;;7.20;99.90;;;;;;5061769;28;20061;-60
2022/02/26 10:43:42;;;;;;;29.85;3.30;;;7.20;99.90;;;;;;5054716;28;20117;-60
2022/02/26 10:46:20;;;;;;;27.85;3.88;;;7.30;99.90;;;;;;5046674;28;20048;-56
2022/02/26 10:48:46;;;;;;;25.92;3.03;;;7.30;99.90;;;;;;5048010;28;20404;-57
2022/02/26 10:51:27;;;;;;;23.35;3.60;;;7.40;99.90;;;;;;5046956;28;20032;-52
2022/02/26 10:53:53;;;;;;;35.63;4.32;;;7.50;99.90;;;;;;5047623;28;20045;-53
2022/02/26 10:56:29;;;;;;;26.70;3.40;;;7.50;99.90;;;;;;5060966;28;20036;-58
2022/02/26 10:59:01;;;;;;;20.48;3.38;;;7.60;99.90;;;;;;5058044;28;20066;-64
2022/02/26 11:01:27;;;;;;;30.90;3.65;;;7.70;99.90;;;;;;5033532;28;20058;-53
2022/02/26 11:03:58;;;;;;;24.73;3.30;;;7.70;99.90;;;;;;5030582;28;20499;-56
2022/02/26 11:06:25;;;;;;;18.05;2.47;;;7.80;99.90;;;;;;5046382;28;20036;-61
2022/02/26 11:08:52;;;;;;;21.98;3.92;;;7.70;99.90;;;;;;5046207;28;20084;-67
2022/02/26 11:11:20;;;;;;;31.42;3.47;;;7.60;99.90;;;;;;5027521;28;20045;-62
2022/02/26 11:13:50;;;;;;;26.55;2.88;;;7.60;99.90;;;;;;5029363;28;20045;-62
2022/02/26 11:16:18;;;;;;;21.40;2.70;;;7.70;99.90;;;;;;5042172;28;20053;-57
2022/02/26 11:18:47;;;;;;;25.30;2.95;;;7.80;99.90;;;;;;5046993;28;20059;-55
2022/02/26 11:21:16;;;;;;;25.10;3.00;;;7.90;99.90;;;;;;5046503;28;20040;-59
2022/02/26 11:23:43;;;;;;;29.30;4.32;;;8.00;99.90;;;;;;5047267;28;20083;-55
2022/02/26 11:26:10;;;;;;;30.75;3.25;;;8.00;99.90;;;;;;5046724;28;20078;-61
2022/02/26 11:28:42;;;;;;;24.50;3.00;;;8.00;99.90;;;;;;5046189;28;20119;-57
2022/02/26 11:31:11;;;;;;;20.10;2.83;;;8.00;99.90;;;;;;5043125;28;20372;-53
2022/02/26 11:33:37;;;;;;;24.15;3.17;;;8.00;99.90;;;;;;5063711;28;20048;-64
2022/02/26 11:36:05;;;;;;;25.67;3.75;;;7.90;99.90;;;;;;5046049;28;20406;-62
2022/02/26 11:38:37;;;;;;;26.67;3.38;;;7.90;99.90;;;;;;5064634;28;20052;-64
2022/02/26 11:41:20;;;;;;;19.92;3.13;;;7.90;99.90;;;;;;5062035;28;20554;-61
2022/02/26 11:43:49;;;;;;;19.30;2.90;;;8.00;99.90;;;;;;5042707;28;20059;-57
2022/02/26 11:46:18;;;;;;;19.10;3.33;;;8.10;99.90;;;;;;5044098;28;20056;-63
2022/02/26 11:48:43;;;;;;;21.77;3.00;;;8.10;99.90;;;;;;5044867;28;20565;-64
2022/02/26 11:51:11;;;;;;;18.95;2.88;;;8.20;99.90;;;;;;5027910;28;20037;-59
2022/02/26 11:53:44;;;;;;;22.83;3.15;;;8.10;99.90;;;;;;5063950;28;20141;-65
2022/02/26 11:56:10;;;;;;;20.98;3.17;;;8.30;99.90;;;;;;5064126;28;20049;-54
2022/02/26 11:58:38;;;;;;;18.70;3.10;;;8.40;99.90;;;;;;5046354;28;20044;-59
2022/02/26 12:01:08;;;;;;;17.73;2.40;;;8.40;99.90;;;;;;5030573;28;20040;-54
2022/02/26 12:04:13;;;;;;;24.10;3.40;;;8.40;99.90;;;;;;5046750;28;20475;-56
2022/02/26 12:06:40;;;;;;;20.23;2.90;;;8.50;99.90;;;;;;5040672;28;20156;-57
2022/02/26 12:09:12;;;;;;;24.45;3.78;;;8.40;99.90;;;;;;5029301;28;20049;-55
2022/02/26 12:11:41;;;;;;;21.67;3.80;;;8.20;99.90;;;;;;5063667;28;20039;-61
2022/02/26 12:14:18;;;;;;;25.27;2.88;;;8.10;99.90;;;;;;5063517;28;20102;-59
2022/02/26 12:16:50;;;;;;;30.52;7.47;;;8.30;99.90;;;;;;5047103;28;20059;-65
2022/02/26 12:19:16;;;;;;;24.38;3.00;;;8.50;99.90;;;;;;5062647;28;20045;-59
2022/02/26 12:21:56;;;;;;;23.90;3.25;;;8.60;99.90;;;;;;5047576;28;20165;-57
2022/02/26 12:24:33;;;;;;;21.15;3.00;;;8.70;99.90;;;;;;5067310;28;20491;-64
2022/02/26 12:27:05;;;;;;;17.25;2.47;;;8.70;99.90;;;;;;5047472;28;20519;-60
2022/02/26 12:29:52;;;;;;;24.90;3.75;;;8.70;99.90;;;;;;5064797;28;20053;-61
2022/02/26 12:32:25;;;;;;;27.38;3.80;;;8.80;99.90;;;;;;5048886;28;20127;-67
2022/02/26 12:35:10;;;;;;;20.83;3.25;;;8.70;99.90;;;;;;5055038;28;20053;-62
2022/02/26 12:37:42;;;;;;;20.73;2.50;;;8.50;99.90;;;;;;5049737;28;20044;-62
2022/02/26 12:40:29;;;;;;;23.17;3.00;;;8.50;99.90;;;;;;5033555;28;20514;-55
2022/02/26 12:43:02;;;;;;;26.90;2.50;;;8.50;99.90;;;;;;5062628;28;20102;-60
2022/02/26 12:45:47;;;;;;;21.33;2.55;;;8.50;99.90;;;;;;5067666;28;20520;-64
2022/02/26 12:48:13;;;;;;;18.50;2.97;;;8.30;99.90;;;;;;5063777;28;20080;-65
2022/02/26 12:50:40;;;;;;;22.40;3.33;;;8.20;99.90;;;;;;5050646;28;20488;-65